sensor_id;sensor_type;location;lat;lon;timestamp;temperature;humidity
3350;DHT22;1688;51.000;13.684;2022-07-03T00:00:39;19.20;96.50
3350;DHT22;1688;51.000;13.684;2022-07-03T00:03:04;19.10;96.50
3350;DHT22;1688;51.000;13.684;2022-07-03T00:05:30;19.20;96.60
3350;DHT22;1688;51.000;13.684;2022-07-03T00:07:57;19.20;96.80
3350;DHT22;1688;51.000;13.684;2022-07-03T00:10:23;19.20;96.70
3350;DHT22;1688;51.000;13.684;2022-07-03T00:12:49;19.10;96.80
3350;DHT22;1688;51.000;13.684;2022-07-03T00:15:14;19.10;96.70
3350;DHT22;1688;51.000;13.684;2022-07-03T00:17:41;19.10;96.80
3350;DHT22;1688;51.000;13.684;2022-07-03T00:20:07;19.10;96.90
3350;DHT22;1688;51.000;13.684;2022-07-03T00:22:37;19.10;96.90
3350;DHT22;1688;51.000;13.684;2022-07-03T00:25:07;19.00;96.70
3350;DHT22;1688;51.000;13.684;2022-07-03T00:27:34;19.00;96.80
3350;DHT22;1688;51.000;13.684;2022-07-03T00:30:01;19.00;96.80
3350;DHT22;1688;51.000;13.684;2022-07-03T00:32:28;18.50;98.40
3350;DHT22;1688;51.000;13.684;2022-07-03T00:34:55;17.90;99.50
3350;DHT22;1688;51.000;13.684;2022-07-03T00:37:22;17.60;99.90
3350;DHT22;1688;51.000;13.684;2022-07-03T00:39:48;17.60;99.90
3350;DHT22;1688;51.000;13.684;2022-07-03T00:42:15;17.60;99.90
3350;DHT22;1688;51.000;13.684;2022-07-03T00:44:52;17.80;99.90
3350;DHT22;1688;51.000;13.684;2022-07-03T00:47:20;17.80;99.90
3350;DHT22;1688;51.000;13.684;2022-07-03T00:49:50;17.90;99.90
3350;DHT22;1688;51.000;13.684;2022-07-03T00:52:17;17.90;99.90
3350;DHT22;1688;51.000;13.684;2022-07-03T00:54:50;18.00;99.90
3350;DHT22;1688;51.000;13.684;2022-07-03T00:57:17;18.00;99.90
3350;DHT22;1688;51.000;13.684;2022-07-03T00:59:43;18.00;99.90
3350;DHT22;1688;51.000;13.684;2022-07-03T01:03:00;18.00;99.90
3350;DHT22;1688;51.000;13.684;2022-07-03T01:05:16;18.00;99.90
3350;DHT22;1688;51.000;13.684;2022-07-03T01:08:04;18.00;99.90
3350;DHT22;1688;51.000;13.684;2022-07-03T01:10:55;18.00;99.90
3350;DHT22;1688;51.000;13.684;2022-07-03T01:16:39;17.80;99.90
3350;DHT22;1688;51.000;13.684;2022-07-03T01:19:38;17.70;99.90
3350;DHT22;1688;51.000;13.684;2022-07-03T01:30:13;17.50;99.90
3350;DHT22;1688;51.000;13.684;2022-07-03T01:32:47;17.50;99.90
3350;DHT22;1688;51.000;13.684;2022-07-03T01:35:22;17.60;99.90
3350;DHT22;1688;51.000;13.684;2022-07-03T01:37:52;17.60;99.90
3350;DHT22;1688;51.000;13.684;2022-07-03T01:40:20;17.60;99.90
3350;DHT22;1688;51.000;13.684;2022-07-03T01:42:48;17.70;99.90
3350;DHT22;1688;51.000;13.684;2022-07-03T01:45:19;17.80;99.90
3350;DHT22;1688;51.000;13.684;2022-07-03T01:47:47;17.80;99.90
3350;DHT22;1688;51.000;13.684;2022-07-03T01:50:15;17.90;99.90
3350;DHT22;1688;51.000;13.684;2022-07-03T01:52:42;18.00;99.90
3350;DHT22;1688;51.000;13.684;2022-07-03T01:55:09;18.00;99.90
3350;DHT22;1688;51.000;13.684;2022-07-03T02:00:12;18.00;99.90
3350;DHT22;1688;51.000;13.684;2022-07-03T02:03:04;18.10;99.90
3350;DHT22;1688;51.000;13.684;2022-07-03T02:05:43;18.10;99.90
3350;DHT22;1688;51.000;13.684;2022-07-03T02:13:28;18.20;99.90
3350;DHT22;1688;51.000;13.684;2022-07-03T02:15:58;18.20;99.90
3350;DHT22;1688;51.000;13.684;2022-07-03T02:18:31;18.20;99.90
3350;DHT22;1688;51.000;13.684;2022-07-03T02:21:18;18.30;99.90
3350;DHT22;1688;51.000;13.684;2022-07-03T02:27:10;18.30;99.90
3350;DHT22;1688;51.000;13.684;2022-07-03T02:29:49;18.40;99.90
3350;DHT22;1688;51.000;13.684;2022-07-03T02:32:23;18.40;99.90
3350;DHT22;1688;51.000;13.684;2022-07-03T02:35:11;18.40;99.90
3350;DHT22;1688;51.000;13.684;2022-07-03T02:37:44;18.40;99.90
3350;DHT22;1688;51.000;13.684;2022-07-03T02:40:20;18.40;99.90
3350;DHT22;1688;51.000;13.684;2022-07-03T02:46:18;18.20;99.90
3350;DHT22;1688;51.000;13.684;2022-07-03T02:48:32;17.90;99.90
3350;DHT22;1688;51.000;13.684;2022-07-03T02:51:05;17.70;99.90
3350;DHT22;1688;51.000;13.684;2022-07-03T02:53:41;17.60;99.90
3350;DHT22;1688;51.000;13.684;2022-07-03T02:56:26;17.50;99.90
3350;DHT22;1688;51.000;13.684;2022-07-03T02:59:03;17.50;99.90
3350;DHT22;1688;51.000;13.684;2022-07-03T03:06:48;17.50;99.90
3350;DHT22;1688;51.000;13.684;2022-07-03T03:09:26;17.40;99.90
3350;DHT22;1688;51.000;13.684;2022-07-03T03:11:52;17.40;99.90
3350;DHT22;1688;51.000;13.684;2022-07-03T03:14:21;17.40;99.90
3350;DHT22;1688;51.000;13.684;2022-07-03T03:16:53;17.40;99.90
3350;DHT22;1688;51.000;13.684;2022-07-03T03:19:23;17.30;99.90
3350;DHT22;1688;51.000;13.684;2022-07-03T03:22:05;17.20;99.90
3350;DHT22;1688;51.000;13.684;2022-07-03T03:24:33;17.30;99.90
3350;DHT22;1688;51.000;13.684;2022-07-03T03:26:59;17.30;99.90
3350;DHT22;1688;51.000;13.684;2022-07-03T03:29:26;17.30;99.90
3350;DHT22;1688;51.000;13.684;2022-07-03T03:31:52;17.30;99.90
3350;DHT22;1688;51.000;13.684;2022-07-03T03:34:18;17.40;99.90
3350;DHT22;1688;51.000;13.684;2022-07-03T03:36:46;17.30;99.90
3350;DHT22;1688;51.000;13.684;2022-07-03T03:39:12;17.40;99.90
3350;DHT22;1688;51.000;13.684;2022-07-03T03:41:38;17.50;99.90
3350;DHT22;1688;51.000;13.684;2022-07-03T03:44:04;17.50;99.90
3350;DHT22;1688;51.000;13.684;2022-07-03T03:46:29;17.60;99.90
3350;DHT22;1688;51.000;13.684;2022-07-03T03:48:57;17.60;99.90
3350;DHT22;1688;51.000;13.684;2022-07-03T03:51:24;17.60;99.90
3350;DHT22;1688;51.000;13.684;2022-07-03T03:53:50;17.60;99.90
3350;DHT22;1688;51.000;13.684;2022-07-03T03:56:16;17.70;99.90
3350;DHT22;1688;51.000;13.684;2022-07-03T03:58:43;17.60;99.90
3350;DHT22;1688;51.000;13.684;2022-07-03T04:01:10;17.70;99.90
3350;DHT22;1688;51.000;13.684;2022-07-03T04:03:37;17.70;99.90
3350;DHT22;1688;51.000;13.684;2022-07-03T04:06:03;17.80;99.90
3350;DHT22;1688;51.000;13.684;2022-07-03T04:08:30;17.80;99.90
3350;DHT22;1688;51.000;13.684;2022-07-03T04:10:56;17.80;99.90
3350;DHT22;1688;51.000;13.684;2022-07-03T04:13:23;17.80;99.90
3350;DHT22;1688;51.000;13.684;2022-07-03T04:15:50;17.80;99.90
3350;DHT22;1688;51.000;13.684;2022-07-03T04:18:16;17.90;99.90
3350;DHT22;1688;51.000;13.684;2022-07-03T04:20:41;17.90;99.90
3350;DHT22;1688;51.000;13.684;2022-07-03T04:23:07;18.00;99.90
3350;DHT22;1688;51.000;13.684;2022-07-03T04:25:33;18.00;99.90
3350;DHT22;1688;51.000;13.684;2022-07-03T04:27:59;18.00;99.90
3350;DHT22;1688;51.000;13.684;2022-07-03T04:30:25;18.10;99.90
3350;DHT22;1688;51.000;13.684;2022-07-03T04:32:51;18.00;99.90
3350;DHT22;1688;51.000;13.684;2022-07-03T04:35:17;18.10;99.90
3350;DHT22;1688;51.000;13.684;2022-07-03T04:37:44;18.20;99.90
3350;DHT22;1688;51.000;13.684;2022-07-03T04:40:10;18.20;99.90
3350;DHT22;1688;51.000;13.684;2022-07-03T04:42:36;18.30;99.90
3350;DHT22;1688;51.000;13.684;2022-07-03T04:45:03;18.40;99.90
3350;DHT22;1688;51.000;13.684;2022-07-03T04:47:29;18.40;99.90
3350;DHT22;1688;51.000;13.684;2022-07-03T04:49:56;18.40;99.90
3350;DHT22;1688;51.000;13.684;2022-07-03T04:52:22;18.00;99.90
3350;DHT22;1688;51.000;13.684;2022-07-03T04:54:47;17.90;99.90
3350;DHT22;1688;51.000;13.684;2022-07-03T04:57:15;17.90;99.90
3350;DHT22;1688;51.000;13.684;2022-07-03T04:59:41;17.80;99.90
3350;DHT22;1688;51.000;13.684;2022-07-03T05:02:07;17.70;99.90
3350;DHT22;1688;51.000;13.684;2022-07-03T05:04:33;17.80;99.90
3350;DHT22;1688;51.000;13.684;2022-07-03T05:06:59;17.90;99.90
3350;DHT22;1688;51.000;13.684;2022-07-03T05:09:25;17.90;99.90
3350;DHT22;1688;51.000;13.684;2022-07-03T05:11:51;17.90;99.90
3350;DHT22;1688;51.000;13.684;2022-07-03T05:14:17;18.00;99.90
3350;DHT22;1688;51.000;13.684;2022-07-03T05:16:43;18.20;99.90
3350;DHT22;1688;51.000;13.684;2022-07-03T05:19:08;18.20;99.90
3350;DHT22;1688;51.000;13.684;2022-07-03T05:21:34;18.40;99.90
3350;DHT22;1688;51.000;13.684;2022-07-03T05:24:00;18.60;99.90
3350;DHT22;1688;51.000;13.684;2022-07-03T05:26:26;18.70;99.90
3350;DHT22;1688;51.000;13.684;2022-07-03T05:28:52;18.80;99.90
3350;DHT22;1688;51.000;13.684;2022-07-03T05:31:18;18.90;99.90
3350;DHT22;1688;51.000;13.684;2022-07-03T05:33:44;18.90;99.90
3350;DHT22;1688;51.000;13.684;2022-07-03T05:36:10;19.00;99.90
3350;DHT22;1688;51.000;13.684;2022-07-03T05:38:37;19.10;99.90
3350;DHT22;1688;51.000;13.684;2022-07-03T05:41:21;19.30;99.90
3350;DHT22;1688;51.000;13.684;2022-07-03T05:43:46;19.30;99.90
3350;DHT22;1688;51.000;13.684;2022-07-03T05:46:12;19.50;99.90
3350;DHT22;1688;51.000;13.684;2022-07-03T05:48:40;19.60;99.90
3350;DHT22;1688;51.000;13.684;2022-07-03T05:51:06;19.80;99.90
3350;DHT22;1688;51.000;13.684;2022-07-03T05:53:31;19.90;99.90
3350;DHT22;1688;51.000;13.684;2022-07-03T05:55:58;19.80;99.90
3350;DHT22;1688;51.000;13.684;2022-07-03T05:58:24;19.80;99.90
3350;DHT22;1688;51.000;13.684;2022-07-03T06:00:50;19.90;99.90
3350;DHT22;1688;51.000;13.684;2022-07-03T06:03:16;20.20;99.90
3350;DHT22;1688;51.000;13.684;2022-07-03T06:05:42;20.40;99.90
3350;DHT22;1688;51.000;13.684;2022-07-03T06:08:08;20.60;99.90
3350;DHT22;1688;51.000;13.684;2022-07-03T06:10:34;20.70;99.90
3350;DHT22;1688;51.000;13.684;2022-07-03T06:13:01;20.80;99.90
3350;DHT22;1688;51.000;13.684;2022-07-03T06:15:27;20.80;99.90
3350;DHT22;1688;51.000;13.684;2022-07-03T06:17:53;20.80;99.90
3350;DHT22;1688;51.000;13.684;2022-07-03T06:20:19;20.90;99.90
3350;DHT22;1688;51.000;13.684;2022-07-03T06:22:45;20.90;99.90
3350;DHT22;1688;51.000;13.684;2022-07-03T06:25:12;20.90;99.90
3350;DHT22;1688;51.000;13.684;2022-07-03T06:27:37;20.90;99.90
3350;DHT22;1688;51.000;13.684;2022-07-03T06:30:04;21.20;99.90
3350;DHT22;1688;51.000;13.684;2022-07-03T06:32:30;21.10;99.90
3350;DHT22;1688;51.000;13.684;2022-07-03T06:34:56;20.90;99.90
3350;DHT22;1688;51.000;13.684;2022-07-03T06:37:22;20.90;99.90
3350;DHT22;1688;51.000;13.684;2022-07-03T06:39:47;21.20;99.90
3350;DHT22;1688;51.000;13.684;2022-07-03T06:42:13;21.30;99.90
3350;DHT22;1688;51.000;13.684;2022-07-03T06:44:39;21.60;99.90
3350;DHT22;1688;51.000;13.684;2022-07-03T06:47:11;21.90;99.90
3350;DHT22;1688;51.000;13.684;2022-07-03T06:49:37;22.20;99.90
3350;DHT22;1688;51.000;13.684;2022-07-03T06:52:03;22.30;99.90
3350;DHT22;1688;51.000;13.684;2022-07-03T06:54:29;22.40;99.90
3350;DHT22;1688;51.000;13.684;2022-07-03T06:56:56;22.60;99.90
3350;DHT22;1688;51.000;13.684;2022-07-03T06:59:22;22.90;99.90
3350;DHT22;1688;51.000;13.684;2022-07-03T07:01:47;22.80;99.90
3350;DHT22;1688;51.000;13.684;2022-07-03T07:04:13;22.70;99.90
3350;DHT22;1688;51.000;13.684;2022-07-03T07:06:39;22.80;99.90
3350;DHT22;1688;51.000;13.684;2022-07-03T07:09:05;22.70;99.90
3350;DHT22;1688;51.000;13.684;2022-07-03T07:11:31;22.50;99.90
3350;DHT22;1688;51.000;13.684;2022-07-03T07:13:56;22.70;99.90
3350;DHT22;1688;51.000;13.684;2022-07-03T07:16:22;22.90;99.90
3350;DHT22;1688;51.000;13.684;2022-07-03T07:18:48;23.00;99.90
3350;DHT22;1688;51.000;13.684;2022-07-03T07:21:14;23.40;99.90
3350;DHT22;1688;51.000;13.684;2022-07-03T07:23:40;23.70;99.90
3350;DHT22;1688;51.000;13.684;2022-07-03T07:26:06;23.80;99.90
3350;DHT22;1688;51.000;13.684;2022-07-03T07:28:33;23.60;99.90
3350;DHT22;1688;51.000;13.684;2022-07-03T07:31:01;23.60;99.70
3350;DHT22;1688;51.000;13.684;2022-07-03T07:33:27;23.90;99.50
3350;DHT22;1688;51.000;13.684;2022-07-03T07:35:53;24.40;98.20
3350;DHT22;1688;51.000;13.684;2022-07-03T07:38:19;24.70;97.60
3350;DHT22;1688;51.000;13.684;2022-07-03T07:40:45;25.20;96.40
3350;DHT22;1688;51.000;13.684;2022-07-03T07:43:10;25.50;95.60
3350;DHT22;1688;51.000;13.684;2022-07-03T07:45:36;25.80;94.30
3350;DHT22;1688;51.000;13.684;2022-07-03T07:48:02;25.90;93.50
3350;DHT22;1688;51.000;13.684;2022-07-03T07:50:28;26.20;93.40
3350;DHT22;1688;51.000;13.684;2022-07-03T07:52:54;26.40;93.10
3350;DHT22;1688;51.000;13.684;2022-07-03T07:55:20;26.50;93.10
3350;DHT22;1688;51.000;13.684;2022-07-03T07:57:47;26.50;91.80
3350;DHT22;1688;51.000;13.684;2022-07-03T08:00:15;26.50;90.40
3350;DHT22;1688;51.000;13.684;2022-07-03T08:02:43;26.60;90.40
3350;DHT22;1688;51.000;13.684;2022-07-03T08:05:27;26.90;90.50
3350;DHT22;1688;51.000;13.684;2022-07-03T08:08:14;27.00;90.00
3350;DHT22;1688;51.000;13.684;2022-07-03T08:10:46;27.00;88.90
3350;DHT22;1688;51.000;13.684;2022-07-03T08:13:13;26.90;88.50
3350;DHT22;1688;51.000;13.684;2022-07-03T08:15:40;26.80;84.90
3350;DHT22;1688;51.000;13.684;2022-07-03T08:18:06;26.80;86.10
3350;DHT22;1688;51.000;13.684;2022-07-03T08:20:33;26.80;84.80
3350;DHT22;1688;51.000;13.684;2022-07-03T08:22:59;27.00;84.30
3350;DHT22;1688;51.000;13.684;2022-07-03T08:25:25;27.10;84.80
3350;DHT22;1688;51.000;13.684;2022-07-03T08:27:52;27.30;83.90
3350;DHT22;1688;51.000;13.684;2022-07-03T08:30:18;27.30;79.40
3350;DHT22;1688;51.000;13.684;2022-07-03T08:32:49;26.90;79.60
3350;DHT22;1688;51.000;13.684;2022-07-03T08:35:15;26.60;80.50
3350;DHT22;1688;51.000;13.684;2022-07-03T08:37:41;26.60;80.60
3350;DHT22;1688;51.000;13.684;2022-07-03T08:40:16;26.40;81.30
3350;DHT22;1688;51.000;13.684;2022-07-03T08:42:56;26.50;81.10
3350;DHT22;1688;51.000;13.684;2022-07-03T08:45:23;26.50;80.90
3350;DHT22;1688;51.000;13.684;2022-07-03T08:47:52;26.50;83.60
3350;DHT22;1688;51.000;13.684;2022-07-03T08:50:19;26.60;83.90
3350;DHT22;1688;51.000;13.684;2022-07-03T08:52:46;26.80;82.40
3350;DHT22;1688;51.000;13.684;2022-07-03T08:55:13;26.90;79.70
3350;DHT22;1688;51.000;13.684;2022-07-03T08:57:41;26.90;80.50
3350;DHT22;1688;51.000;13.684;2022-07-03T09:00:09;27.10;82.30
3350;DHT22;1688;51.000;13.684;2022-07-03T09:02:36;27.30;81.30
3350;DHT22;1688;51.000;13.684;2022-07-03T09:05:04;27.30;79.30
3350;DHT22;1688;51.000;13.684;2022-07-03T09:07:35;27.40;77.70
3350;DHT22;1688;51.000;13.684;2022-07-03T09:10:05;27.60;78.50
3350;DHT22;1688;51.000;13.684;2022-07-03T09:12:32;27.90;78.40
3350;DHT22;1688;51.000;13.684;2022-07-03T09:15:05;28.30;77.50
3350;DHT22;1688;51.000;13.684;2022-07-03T09:17:32;28.50;73.70
3350;DHT22;1688;51.000;13.684;2022-07-03T09:20:00;28.60;73.30
3350;DHT22;1688;51.000;13.684;2022-07-03T09:22:27;28.70;71.50
3350;DHT22;1688;51.000;13.684;2022-07-03T09:25:16;28.70;70.90
3350;DHT22;1688;51.000;13.684;2022-07-03T09:27:51;28.80;71.30
3350;DHT22;1688;51.000;13.684;2022-07-03T09:30:18;29.10;71.50
3350;DHT22;1688;51.000;13.684;2022-07-03T09:32:46;29.00;70.40
3350;DHT22;1688;51.000;13.684;2022-07-03T09:35:18;29.00;70.90
3350;DHT22;1688;51.000;13.684;2022-07-03T09:40:14;29.40;71.30
3350;DHT22;1688;51.000;13.684;2022-07-03T09:42:40;29.40;69.30
3350;DHT22;1688;51.000;13.684;2022-07-03T09:45:06;29.40;68.20
3350;DHT22;1688;51.000;13.684;2022-07-03T09:47:34;29.40;70.90
3350;DHT22;1688;51.000;13.684;2022-07-03T09:50:03;29.40;70.90
3350;DHT22;1688;51.000;13.684;2022-07-03T09:55:20;29.70;69.10
3350;DHT22;1688;51.000;13.684;2022-07-03T10:00:25;30.10;67.60
3350;DHT22;1688;51.000;13.684;2022-07-03T10:05:23;30.30;66.00
3350;DHT22;1688;51.000;13.684;2022-07-03T10:07:57;30.50;66.50
3350;DHT22;1688;51.000;13.684;2022-07-03T10:10:25;30.70;65.60
3350;DHT22;1688;51.000;13.684;2022-07-03T10:12:52;30.70;64.90
3350;DHT22;1688;51.000;13.684;2022-07-03T10:15:20;30.70;66.00
3350;DHT22;1688;51.000;13.684;2022-07-03T10:17:57;30.40;61.50
3350;DHT22;1688;51.000;13.684;2022-07-03T10:20:29;29.50;65.20
3350;DHT22;1688;51.000;13.684;2022-07-03T10:22:56;29.60;67.20
3350;DHT22;1688;51.000;13.684;2022-07-03T10:25:22;29.90;65.20
3350;DHT22;1688;51.000;13.684;2022-07-03T10:27:49;30.20;64.80
3350;DHT22;1688;51.000;13.684;2022-07-03T10:30:20;30.30;64.20
3350;DHT22;1688;51.000;13.684;2022-07-03T10:32:50;30.30;63.30
3350;DHT22;1688;51.000;13.684;2022-07-03T10:35:23;30.30;62.40
3350;DHT22;1688;51.000;13.684;2022-07-03T10:43:46;30.10;63.30
3350;DHT22;1688;51.000;13.684;2022-07-03T10:46:32;30.10;64.10
3350;DHT22;1688;51.000;13.684;2022-07-03T10:49:05;29.90;62.90
3350;DHT22;1688;51.000;13.684;2022-07-03T10:51:55;30.00;63.30
3350;DHT22;1688;51.000;13.684;2022-07-03T10:54:26;30.20;62.50
3350;DHT22;1688;51.000;13.684;2022-07-03T11:02:38;30.30;63.10
3350;DHT22;1688;51.000;13.684;2022-07-03T11:05:06;30.50;64.00
3350;DHT22;1688;51.000;13.684;2022-07-03T11:08:02;30.60;62.30
3350;DHT22;1688;51.000;13.684;2022-07-03T11:10:30;30.60;62.00
3350;DHT22;1688;51.000;13.684;2022-07-03T11:13:01;30.40;61.50
3350;DHT22;1688;51.000;13.684;2022-07-03T11:20:32;30.40;62.30
3350;DHT22;1688;51.000;13.684;2022-07-03T11:41:29;32.00;57.80
3350;DHT22;1688;51.000;13.684;2022-07-03T11:44:00;32.00;60.40
3350;DHT22;1688;51.000;13.684;2022-07-03T11:46:34;32.50;59.50
3350;DHT22;1688;51.000;13.684;2022-07-03T11:49:11;32.70;58.70
3350;DHT22;1688;51.000;13.684;2022-07-03T11:51:39;32.70;55.80
3350;DHT22;1688;51.000;13.684;2022-07-03T11:54:05;33.30;56.10
3350;DHT22;1688;51.000;13.684;2022-07-03T11:56:33;34.90;54.70
3350;DHT22;1688;51.000;13.684;2022-07-03T11:59:01;36.10;53.60
3350;DHT22;1688;51.000;13.684;2022-07-03T12:01:29;35.60;50.10
3350;DHT22;1688;51.000;13.684;2022-07-03T12:04:14;35.70;52.30
3350;DHT22;1688;51.000;13.684;2022-07-03T12:11:39;34.90;51.50
3350;DHT22;1688;51.000;13.684;2022-07-03T12:14:05;34.70;53.50
3350;DHT22;1688;51.000;13.684;2022-07-03T12:16:33;34.60;52.50
3350;DHT22;1688;51.000;13.684;2022-07-03T12:19:19;34.10;52.70
3350;DHT22;1688;51.000;13.684;2022-07-03T12:21:45;33.70;53.60
3350;DHT22;1688;51.000;13.684;2022-07-03T12:24:13;33.60;53.70
3350;DHT22;1688;51.000;13.684;2022-07-03T12:26:39;33.30;53.50
3350;DHT22;1688;51.000;13.684;2022-07-03T12:29:13;32.90;53.00
3350;DHT22;1688;51.000;13.684;2022-07-03T12:31:41;32.20;54.50
3350;DHT22;1688;51.000;13.684;2022-07-03T12:34:07;31.80;55.20
3350;DHT22;1688;51.000;13.684;2022-07-03T12:36:33;31.50;57.10
3350;DHT22;1688;51.000;13.684;2022-07-03T12:38:59;31.40;56.80
3350;DHT22;1688;51.000;13.684;2022-07-03T12:41:26;31.40;56.30
3350;DHT22;1688;51.000;13.684;2022-07-03T12:43:53;31.50;57.90
3350;DHT22;1688;51.000;13.684;2022-07-03T12:46:23;31.80;57.20
3350;DHT22;1688;51.000;13.684;2022-07-03T12:48:54;32.20;57.30
3350;DHT22;1688;51.000;13.684;2022-07-03T12:54:21;32.00;56.30
3350;DHT22;1688;51.000;13.684;2022-07-03T12:57:06;32.00;56.90
3350;DHT22;1688;51.000;13.684;2022-07-03T13:00:06;32.20;55.60
3350;DHT22;1688;51.000;13.684;2022-07-03T13:02:33;32.30;55.20
3350;DHT22;1688;51.000;13.684;2022-07-03T13:05:01;32.30;55.30
3350;DHT22;1688;51.000;13.684;2022-07-03T13:07:30;32.20;54.00
3350;DHT22;1688;51.000;13.684;2022-07-03T13:10:00;31.80;55.10
3350;DHT22;1688;51.000;13.684;2022-07-03T13:12:27;31.70;56.00
3350;DHT22;1688;51.000;13.684;2022-07-03T13:15:01;31.40;55.60
3350;DHT22;1688;51.000;13.684;2022-07-03T13:18:05;31.20;57.40
3350;DHT22;1688;51.000;13.684;2022-07-03T13:20:33;31.30;58.20
3350;DHT22;1688;51.000;13.684;2022-07-03T13:23:05;31.60;59.60
3350;DHT22;1688;51.000;13.684;2022-07-03T13:25:33;31.90;57.40
3350;DHT22;1688;51.000;13.684;2022-07-03T13:28:14;31.90;57.60
3350;DHT22;1688;51.000;13.684;2022-07-03T13:30:41;32.00;57.80
3350;DHT22;1688;51.000;13.684;2022-07-03T13:33:09;32.20;57.20
3350;DHT22;1688;51.000;13.684;2022-07-03T13:35:36;32.50;57.50
3350;DHT22;1688;51.000;13.684;2022-07-03T13:38:02;32.50;56.20
3350;DHT22;1688;51.000;13.684;2022-07-03T13:40:28;32.50;54.90
3350;DHT22;1688;51.000;13.684;2022-07-03T13:42:55;32.50;55.60
3350;DHT22;1688;51.000;13.684;2022-07-03T13:45:20;32.60;54.70
3350;DHT22;1688;51.000;13.684;2022-07-03T13:47:47;32.70;55.70
3350;DHT22;1688;51.000;13.684;2022-07-03T13:50:12;32.80;54.70
3350;DHT22;1688;51.000;13.684;2022-07-03T13:52:38;32.80;53.60
3350;DHT22;1688;51.000;13.684;2022-07-03T13:55:06;32.90;53.60
3350;DHT22;1688;51.000;13.684;2022-07-03T13:57:32;33.00;53.10
3350;DHT22;1688;51.000;13.684;2022-07-03T14:00:01;32.70;53.70
3350;DHT22;1688;51.000;13.684;2022-07-03T14:02:26;32.70;53.10
3350;DHT22;1688;51.000;13.684;2022-07-03T14:04:52;32.70;53.10
3350;DHT22;1688;51.000;13.684;2022-07-03T14:07:18;32.50;53.20
3350;DHT22;1688;51.000;13.684;2022-07-03T14:09:44;32.40;53.00
3350;DHT22;1688;51.000;13.684;2022-07-03T14:12:10;32.40;53.70
3350;DHT22;1688;51.000;13.684;2022-07-03T14:14:37;32.20;53.10
3350;DHT22;1688;51.000;13.684;2022-07-03T14:17:03;32.10;53.60
3350;DHT22;1688;51.000;13.684;2022-07-03T14:19:29;32.20;53.50
3350;DHT22;1688;51.000;13.684;2022-07-03T14:21:55;32.10;51.80
3350;DHT22;1688;51.000;13.684;2022-07-03T14:24:21;32.30;52.20
3350;DHT22;1688;51.000;13.684;2022-07-03T14:26:47;32.40;52.20
3350;DHT22;1688;51.000;13.684;2022-07-03T14:29:32;32.60;52.20
3350;DHT22;1688;51.000;13.684;2022-07-03T14:32:16;32.60;50.80
3350;DHT22;1688;51.000;13.684;2022-07-03T14:34:57;32.90;52.90
3350;DHT22;1688;51.000;13.684;2022-07-03T14:37:24;32.90;49.50
3350;DHT22;1688;51.000;13.684;2022-07-03T14:39:50;33.00;52.30
3350;DHT22;1688;51.000;13.684;2022-07-03T14:42:17;33.10;51.80
3350;DHT22;1688;51.000;13.684;2022-07-03T14:44:43;33.20;50.40
3350;DHT22;1688;51.000;13.684;2022-07-03T14:47:09;33.20;49.20
3350;DHT22;1688;51.000;13.684;2022-07-03T14:49:35;33.20;51.00
3350;DHT22;1688;51.000;13.684;2022-07-03T14:52:02;33.30;50.60
3350;DHT22;1688;51.000;13.684;2022-07-03T14:54:28;33.50;50.80
3350;DHT22;1688;51.000;13.684;2022-07-03T14:56:58;33.60;49.30
3350;DHT22;1688;51.000;13.684;2022-07-03T14:59:35;33.60;48.90
3350;DHT22;1688;51.000;13.684;2022-07-03T15:02:06;33.50;48.30
3350;DHT22;1688;51.000;13.684;2022-07-03T15:07:26;33.60;49.50
3350;DHT22;1688;51.000;13.684;2022-07-03T15:10:05;33.60;49.00
3350;DHT22;1688;51.000;13.684;2022-07-03T15:12:33;33.50;49.00
3350;DHT22;1688;51.000;13.684;2022-07-03T15:14:59;33.40;47.30
3350;DHT22;1688;51.000;13.684;2022-07-03T15:17:26;33.50;49.80
3350;DHT22;1688;51.000;13.684;2022-07-03T15:19:55;33.40;49.60
3350;DHT22;1688;51.000;13.684;2022-07-03T15:22:21;33.30;49.90
3350;DHT22;1688;51.000;13.684;2022-07-03T15:24:52;33.50;48.40
3350;DHT22;1688;51.000;13.684;2022-07-03T15:27:21;32.90;47.70
3350;DHT22;1688;51.000;13.684;2022-07-03T15:29:47;32.50;50.00
3350;DHT22;1688;51.000;13.684;2022-07-03T15:32:13;32.80;50.90
3350;DHT22;1688;51.000;13.684;2022-07-03T15:34:41;33.10;49.50
3350;DHT22;1688;51.000;13.684;2022-07-03T15:39:49;33.10;51.30
3350;DHT22;1688;51.000;13.684;2022-07-03T15:43:41;33.30;49.60
3350;DHT22;1688;51.000;13.684;2022-07-03T15:51:18;32.30;49.10
3350;DHT22;1688;51.000;13.684;2022-07-03T15:53:49;32.10;49.80
3350;DHT22;1688;51.000;13.684;2022-07-03T15:56:17;32.20;50.80
3350;DHT22;1688;51.000;13.684;2022-07-03T15:58:49;32.10;50.00
3350;DHT22;1688;51.000;13.684;2022-07-03T16:01:18;32.20;51.50
3350;DHT22;1688;51.000;13.684;2022-07-03T16:04:16;32.30;52.50
3350;DHT22;1688;51.000;13.684;2022-07-03T16:06:44;32.50;51.50
3350;DHT22;1688;51.000;13.684;2022-07-03T16:09:11;32.60;52.20
3350;DHT22;1688;51.000;13.684;2022-07-03T16:11:37;32.50;51.90
3350;DHT22;1688;51.000;13.684;2022-07-03T16:14:04;32.30;51.30
3350;DHT22;1688;51.000;13.684;2022-07-03T16:16:32;32.30;51.80
3350;DHT22;1688;51.000;13.684;2022-07-03T16:19:03;32.30;53.10
3350;DHT22;1688;51.000;13.684;2022-07-03T16:21:30;32.40;53.10
3350;DHT22;1688;51.000;13.684;2022-07-03T16:24:00;32.40;52.60
3350;DHT22;1688;51.000;13.684;2022-07-03T16:26:29;32.20;51.20
3350;DHT22;1688;51.000;13.684;2022-07-03T16:28:56;31.80;51.80
3350;DHT22;1688;51.000;13.684;2022-07-03T16:31:25;31.80;52.70
3350;DHT22;1688;51.000;13.684;2022-07-03T16:34:01;31.80;53.20
3350;DHT22;1688;51.000;13.684;2022-07-03T16:36:30;31.80;52.40
3350;DHT22;1688;51.000;13.684;2022-07-03T16:39:03;31.70;51.50
3350;DHT22;1688;51.000;13.684;2022-07-03T16:41:30;31.60;53.00
3350;DHT22;1688;51.000;13.684;2022-07-03T16:43:57;31.60;52.30
3350;DHT22;1688;51.000;13.684;2022-07-03T16:46:25;31.50;52.60
3350;DHT22;1688;51.000;13.684;2022-07-03T16:48:53;31.40;52.40
3350;DHT22;1688;51.000;13.684;2022-07-03T16:51:23;31.40;52.90
3350;DHT22;1688;51.000;13.684;2022-07-03T16:53:52;31.40;52.80
3350;DHT22;1688;51.000;13.684;2022-07-03T16:56:19;31.40;53.00
3350;DHT22;1688;51.000;13.684;2022-07-03T16:58:45;31.40;53.20
3350;DHT22;1688;51.000;13.684;2022-07-03T17:01:11;31.50;55.00
3350;DHT22;1688;51.000;13.684;2022-07-03T17:03:39;31.60;54.30
3350;DHT22;1688;51.000;13.684;2022-07-03T17:06:05;31.60;53.90
3350;DHT22;1688;51.000;13.684;2022-07-03T17:08:32;31.60;53.10
3350;DHT22;1688;51.000;13.684;2022-07-03T17:10:59;31.60;52.20
3350;DHT22;1688;51.000;13.684;2022-07-03T17:13:25;31.50;51.30
3350;DHT22;1688;51.000;13.684;2022-07-03T17:15:53;31.40;53.40
3350;DHT22;1688;51.000;13.684;2022-07-03T17:18:31;31.20;51.90
3350;DHT22;1688;51.000;13.684;2022-07-03T17:21:02;30.90;53.30
3350;DHT22;1688;51.000;13.684;2022-07-03T17:23:29;30.60;53.80
3350;DHT22;1688;51.000;13.684;2022-07-03T17:26:04;30.50;55.30
3350;DHT22;1688;51.000;13.684;2022-07-03T17:28:59;30.40;55.30
3350;DHT22;1688;51.000;13.684;2022-07-03T17:31:21;30.40;55.00
3350;DHT22;1688;51.000;13.684;2022-07-03T17:33:52;30.30;55.40